createdAt,value
2018-12-20T00:01:21.387Z,17.33
2018-12-20T00:03:49.776Z,21.10
2018-12-20T00:06:17.957Z,19.23
2018-12-20T00:08:45.981Z,20.03
2018-12-20T00:11:14.098Z,18.90
2018-12-20T00:13:42.151Z,20.23
2018-12-20T00:16:10.287Z,20.17
2018-12-20T00:18:38.358Z,20.70
2018-12-20T00:21:06.495Z,19.30
2018-12-20T00:23:34.611Z,18.70
2018-12-20T00:26:02.720Z,19.80
2018-12-20T00:28:30.791Z,19.27
2018-12-20T00:30:58.779Z,19.73
2018-12-20T00:33:26.837Z,19.03
2018-12-20T00:35:54.986Z,19.60
2018-12-20T00:38:22.964Z,20.43
2018-12-20T00:40:51.139Z,20.33
2018-12-20T00:43:19.185Z,19.77
2018-12-20T00:45:47.281Z,19.90
2018-12-20T00:48:15.308Z,18.67
2018-12-20T00:50:43.526Z,19.17
2018-12-20T00:53:11.609Z,18.90
2018-12-20T00:55:39.741Z,22.40
2018-12-20T00:58:07.735Z,19.13
2018-12-20T01:00:35.797Z,19.83
2018-12-20T01:03:04.447Z,19.00
2018-12-20T01:05:32.470Z,18.80
2018-12-20T01:08:00.506Z,20.37
2018-12-20T01:10:28.548Z,20.60
2018-12-20T01:12:56.679Z,20.50
2018-12-20T01:15:24.965Z,19.87
2018-12-20T01:17:53.038Z,19.60
2018-12-20T01:20:21.125Z,20.60
2018-12-20T01:22:49.295Z,20.87
2018-12-20T01:25:17.576Z,19.73
2018-12-20T01:27:45.688Z,19.27
2018-12-20T01:30:13.932Z,20.43
2018-12-20T01:32:42.023Z,22.37
2018-12-20T01:35:10.194Z,19.77
2018-12-20T01:37:38.230Z,21.70
2018-12-20T01:40:06.292Z,20.57
2018-12-20T01:42:34.417Z,20.77
2018-12-20T01:45:02.501Z,19.90
2018-12-20T01:47:30.681Z,19.83
2018-12-20T01:49:58.742Z,20.27
2018-12-20T01:52:26.916Z,21.47
2018-12-20T01:54:55.042Z,19.03
2018-12-20T01:57:23.198Z,19.67
2018-12-20T01:59:51.421Z,19.40
2018-12-20T02:02:19.581Z,19.30
2018-12-20T02:04:47.869Z,18.60
2018-12-20T02:07:15.875Z,20.33
2018-12-20T02:09:43.910Z,18.90
2018-12-20T02:12:12.065Z,18.97
2018-12-20T02:14:40.189Z,22.87
2018-12-20T02:17:08.201Z,18.67
2018-12-20T02:19:36.276Z,18.97
2018-12-20T02:22:04.439Z,19.97
2018-12-20T02:24:32.630Z,19.67
2018-12-20T02:27:00.846Z,18.07
2018-12-20T02:29:29.050Z,18.40
2018-12-20T02:31:59.150Z,18.43
2018-12-20T02:34:27.230Z,20.63
2018-12-20T02:36:55.248Z,19.60
2018-12-20T02:39:23.308Z,20.37
2018-12-20T02:41:51.480Z,18.43
2018-12-20T02:44:19.506Z,19.67
2018-12-20T02:46:47.527Z,19.80
2018-12-20T02:49:15.611Z,19.80
2018-12-20T02:51:44.019Z,19.03
2018-12-20T02:54:12.086Z,20.03
2018-12-20T02:56:40.067Z,21.07
2018-12-20T02:59:08.123Z,18.63
2018-12-20T03:01:36.409Z,19.30
2018-12-20T03:04:04.525Z,19.70
2018-12-20T03:06:32.523Z,18.87
2018-12-20T03:09:00.595Z,18.57
2018-12-20T03:11:28.594Z,19.80
2018-12-20T03:13:56.791Z,18.33
2018-12-20T03:16:24.908Z,18.27
2018-12-20T03:18:52.974Z,17.97
2018-12-20T03:21:21.088Z,17.23
2018-12-20T03:23:49.049Z,16.50
2018-12-20T03:26:17.144Z,17.00
2018-12-20T03:28:45.509Z,18.03
2018-12-20T03:31:13.787Z,16.17
2018-12-20T03:33:41.998Z,17.33
2018-12-20T03:36:10.237Z,16.97
2018-12-20T03:38:38.459Z,16.93
2018-12-20T03:41:06.552Z,16.03
2018-12-20T03:43:34.577Z,16.37
2018-12-20T03:46:02.801Z,16.20
2018-12-20T03:48:30.967Z,15.30
2018-12-20T03:50:59.018Z,16.13
2018-12-20T03:53:27.222Z,17.27
2018-12-20T03:55:55.493Z,17.90
2018-12-20T03:58:23.528Z,18.27
2018-12-20T04:00:51.647Z,17.03
2018-12-20T04:03:19.801Z,17.87
2018-12-20T04:05:47.927Z,17.50
2018-12-20T04:08:16.053Z,17.73
2018-12-20T04:10:44.071Z,18.90
2018-12-20T04:13:12.142Z,18.50
2018-12-20T04:15:40.325Z,20.20
2018-12-20T04:18:08.367Z,18.30
2018-12-20T04:20:36.927Z,17.63
2018-12-20T04:23:05.314Z,18.27
2018-12-20T04:25:33.534Z,19.70
2018-12-20T04:28:01.626Z,17.27
2018-12-20T04:30:29.849Z,18.87
2018-12-20T04:32:57.985Z,18.07
2018-12-20T04:35:26.186Z,19.20
2018-12-20T04:37:54.475Z,16.97
2018-12-20T04:40:22.612Z,18.27
2018-12-20T04:42:50.835Z,19.13
2018-12-20T04:45:19.297Z,18.77
2018-12-20T04:47:47.476Z,19.10
2018-12-20T04:50:15.544Z,19.00
2018-12-20T04:52:43.552Z,19.70
2018-12-20T04:55:11.609Z,18.73
2018-12-20T04:57:39.649Z,21.57
2018-12-20T05:00:09.132Z,18.97
2018-12-20T05:02:37.136Z,17.43
2018-12-20T05:05:05.364Z,19.67
2018-12-20T05:07:33.531Z,18.37
2018-12-20T05:10:01.911Z,16.63
2018-12-20T05:12:30.235Z,17.20
2018-12-20T05:14:58.460Z,17.23
2018-12-20T05:17:26.641Z,16.90
2018-12-20T05:19:54.654Z,18.37
2018-12-20T05:22:22.653Z,18.10
2018-12-20T05:24:50.666Z,18.03
2018-12-20T05:27:18.670Z,18.00
2018-12-20T05:29:46.681Z,16.93
2018-12-20T05:32:14.689Z,18.03
2018-12-20T05:34:42.818Z,19.70
2018-12-20T05:37:11.005Z,17.30
2018-12-20T05:39:39.235Z,18.03
2018-12-20T05:42:07.420Z,17.30
2018-12-20T05:44:35.713Z,18.20
2018-12-20T05:47:03.913Z,16.87
2018-12-20T05:49:31.925Z,17.73
2018-12-20T05:51:59.938Z,17.47
2018-12-20T05:54:27.949Z,17.40
2018-12-20T05:56:55.975Z,17.50
2018-12-20T05:59:24.046Z,18.37
2018-12-20T06:01:52.046Z,16.60
2018-12-20T06:04:20.067Z,16.17
2018-12-20T06:06:48.380Z,16.53
2018-12-20T06:09:16.630Z,15.07
2018-12-20T06:11:44.685Z,16.37
2018-12-20T06:14:12.699Z,16.47
2018-12-20T06:16:40.765Z,18.20
2018-12-20T06:19:08.924Z,16.57
2018-12-20T06:21:36.957Z,16.37
2018-12-20T06:24:04.969Z,15.17
2018-12-20T06:26:32.990Z,15.97
2018-12-20T06:29:01.014Z,15.50
2018-12-20T06:31:29.602Z,16.07
2018-12-20T06:33:57.615Z,15.70
2018-12-20T06:36:25.616Z,15.30
2018-12-20T06:38:53.621Z,15.93
2018-12-20T06:41:21.637Z,16.53
2018-12-20T06:43:49.719Z,15.93
2018-12-20T06:46:21.348Z,15.50
2018-12-20T06:48:47.677Z,15.80
2018-12-20T06:51:16.345Z,14.40
2018-12-20T06:53:44.357Z,16.37
2018-12-20T06:56:12.422Z,15.00
2018-12-20T06:58:40.411Z,15.43
2018-12-20T07:01:08.426Z,14.23
2018-12-20T07:03:36.449Z,13.70
2018-12-20T07:06:04.444Z,12.93
2018-12-20T07:08:32.428Z,13.90
2018-12-20T07:11:00.455Z,14.27
2018-12-20T07:13:28.441Z,13.67
2018-12-20T07:15:56.454Z,15.27
2018-12-20T07:18:24.474Z,14.63
2018-12-20T07:20:52.473Z,15.03
2018-12-20T07:23:20.550Z,15.80
2018-12-20T07:25:48.557Z,13.87
2018-12-20T07:28:16.573Z,14.33
2018-12-20T07:30:44.597Z,15.77
2018-12-20T07:33:12.642Z,15.37
2018-12-20T07:35:40.654Z,18.60
2018-12-20T07:38:08.665Z,16.63
2018-12-20T07:40:38.161Z,15.10
2018-12-20T07:43:06.255Z,14.70
2018-12-20T07:45:34.278Z,14.23
2018-12-20T07:48:02.309Z,13.77
2018-12-20T07:50:30.369Z,14.10
2018-12-20T07:52:58.398Z,14.57
2018-12-20T07:55:26.472Z,12.53
2018-12-20T07:57:54.534Z,13.63
2018-12-20T08:00:22.558Z,13.50
2018-12-20T08:02:50.616Z,14.47
2018-12-20T08:05:18.642Z,14.30
2018-12-20T08:07:46.945Z,13.63
2018-12-20T08:10:14.959Z,13.87
2018-12-20T08:12:42.971Z,15.07
2018-12-20T08:15:10.989Z,13.63
2018-12-20T08:17:39.057Z,15.90
2018-12-20T08:20:07.249Z,15.10
2018-12-20T08:22:35.294Z,13.70
2018-12-20T08:25:03.369Z,13.87
2018-12-20T08:27:31.451Z,13.33
2018-12-20T08:29:59.473Z,14.13
2018-12-20T08:32:27.474Z,13.30
2018-12-20T08:34:55.521Z,13.57
2018-12-20T08:37:23.530Z,13.17
2018-12-20T08:39:51.550Z,13.47
2018-12-20T08:42:19.613Z,14.30
2018-12-20T08:44:47.690Z,13.90
2018-12-20T08:47:15.695Z,13.77
2018-12-20T08:49:43.706Z,12.90
2018-12-20T08:52:12.010Z,12.70
2018-12-20T08:54:40.037Z,15.90
2018-12-20T08:57:08.035Z,13.53
2018-12-20T08:59:36.073Z,13.50
2018-12-20T09:02:04.061Z,12.17
2018-12-20T09:04:32.075Z,12.07
2018-12-20T09:07:00.093Z,12.20
2018-12-20T09:09:28.111Z,11.90
2018-12-20T09:11:56.132Z,13.40
2018-12-20T09:14:24.160Z,12.90
2018-12-20T09:16:52.234Z,12.30
2018-12-20T09:19:20.258Z,13.27
2018-12-20T09:21:48.271Z,13.53
2018-12-20T09:24:16.295Z,13.73
2018-12-20T09:26:44.361Z,13.30
2018-12-20T09:29:12.389Z,12.50
2018-12-20T09:31:40.401Z,11.47
2018-12-20T09:34:08.409Z,11.23
2018-12-20T09:36:36.486Z,13.67
2018-12-20T09:39:06.925Z,11.10
2018-12-20T09:41:34.945Z,11.57
2018-12-20T09:44:03.018Z,10.73
2018-12-20T09:46:31.039Z,11.47
2018-12-20T09:48:59.035Z,11.77
2018-12-20T09:51:27.065Z,11.17
2018-12-20T09:53:55.070Z,10.50
2018-12-20T09:56:23.171Z,10.33
2018-12-20T09:58:51.179Z,10.23
2018-12-20T10:01:19.209Z,9.70
2018-12-20T10:03:47.211Z,10.43
2018-12-20T10:06:15.306Z,10.13
2018-12-20T10:08:43.293Z,9.03
2018-12-20T10:11:11.311Z,8.87
2018-12-20T10:13:39.316Z,11.57
2018-12-20T10:16:07.333Z,7.87
2018-12-20T10:18:35.400Z,7.83
2018-12-20T10:21:03.419Z,6.57
2018-12-20T10:23:31.484Z,6.50
2018-12-20T10:26:00.557Z,6.83
2018-12-20T10:28:28.548Z,7.10
2018-12-20T10:30:56.559Z,6.63
2018-12-20T10:33:24.631Z,7.37
2018-12-20T10:35:52.622Z,11.37
2018-12-20T10:38:20.627Z,8.30
2018-12-20T10:40:48.642Z,7.60
2018-12-20T10:43:16.654Z,5.67
2018-12-20T10:45:44.654Z,9.23
2018-12-20T10:48:12.651Z,5.13
2018-12-20T10:50:40.748Z,4.90
2018-12-20T10:53:08.857Z,4.57
2018-12-20T10:55:36.862Z,6.50
2018-12-20T10:58:04.865Z,4.07
2018-12-20T11:00:34.834Z,4.43
2018-12-20T11:03:08.594Z,4.17
2018-12-20T11:05:42.287Z,3.90
2018-12-20T11:08:16.028Z,3.97
2018-12-20T11:10:44.046Z,3.93
2018-12-20T11:13:17.590Z,3.97
2018-12-20T11:15:45.607Z,3.60
2018-12-20T11:18:13.614Z,3.50
2018-12-20T11:20:41.618Z,3.47
2018-12-20T11:23:09.621Z,4.00
2018-12-20T11:25:37.646Z,3.90
2018-12-20T11:28:05.638Z,3.50
2018-12-20T11:30:33.710Z,3.07
2018-12-20T11:33:01.720Z,2.80
2018-12-20T11:35:29.749Z,2.73
2018-12-20T11:37:57.722Z,3.40
2018-12-20T11:40:25.734Z,3.10
2018-12-20T11:42:53.752Z,4.07
2018-12-20T11:45:21.737Z,2.40
2018-12-20T11:47:49.754Z,2.30
2018-12-20T11:50:17.818Z,2.50
2018-12-20T11:52:45.878Z,2.27
2018-12-20T11:55:13.938Z,2.87
2018-12-20T11:57:41.949Z,2.20
2018-12-20T12:00:10.351Z,2.50
2018-12-20T12:02:38.364Z,2.47
2018-12-20T12:05:06.495Z,2.50
2018-12-20T12:07:34.673Z,2.20
2018-12-20T12:10:02.727Z,2.00
2018-12-20T12:12:30.752Z,1.90
2018-12-20T12:14:58.758Z,1.87
2018-12-20T12:17:26.818Z,2.03
2018-12-20T12:19:54.801Z,3.33
2018-12-20T12:22:22.814Z,1.70
2018-12-20T12:24:50.830Z,2.00
2018-12-20T12:27:18.824Z,1.90
2018-12-20T12:29:46.817Z,2.00
2018-12-20T12:32:14.825Z,1.80
2018-12-20T12:34:42.805Z,1.70
2018-12-20T12:37:10.817Z,2.30
2018-12-20T12:39:38.822Z,1.83
2018-12-20T12:42:06.846Z,2.00
2018-12-20T12:44:34.865Z,2.30
2018-12-20T12:47:04.921Z,2.40
2018-12-20T12:49:32.921Z,1.93
2018-12-20T12:52:00.939Z,2.10
2018-12-20T12:54:28.958Z,2.30
2018-12-20T12:56:56.982Z,2.00
2018-12-20T12:59:25.235Z,2.00
2018-12-20T13:01:53.254Z,4.60
2018-12-20T13:04:21.247Z,1.97
2018-12-20T13:06:49.260Z,2.10
2018-12-20T13:09:17.335Z,2.20
2018-12-20T13:11:45.423Z,2.00
2018-12-20T13:14:13.483Z,4.70
2018-12-20T13:16:41.478Z,3.83
2018-12-20T13:19:09.493Z,2.80
2018-12-20T13:21:37.758Z,2.60
2018-12-20T13:24:05.790Z,1.97
2018-12-20T13:26:33.779Z,2.30
2018-12-20T13:29:01.798Z,2.20
2018-12-20T13:31:29.813Z,2.10
2018-12-20T13:33:57.843Z,2.10
2018-12-20T13:36:25.848Z,2.20
2018-12-20T13:38:53.876Z,4.60
2018-12-20T13:41:21.867Z,2.00
2018-12-20T13:43:49.888Z,2.23
2018-12-20T13:46:17.938Z,1.90
2018-12-20T13:48:45.983Z,1.93
2018-12-20T13:51:14.318Z,2.00
2018-12-20T13:53:42.594Z,2.10
2018-12-20T13:56:10.583Z,2.00
2018-12-20T13:58:38.583Z,2.20
2018-12-20T14:01:06.585Z,1.97
2018-12-20T14:03:34.606Z,2.20
2018-12-20T14:06:02.682Z,2.30
2018-12-20T14:08:30.687Z,2.40
2018-12-20T14:10:58.739Z,2.10
2018-12-20T14:13:26.761Z,1.90
2018-12-20T14:15:54.765Z,2.23
2018-12-20T14:18:30.663Z,2.17
2018-12-20T14:20:52.768Z,5.43
2018-12-20T14:23:20.786Z,2.80
2018-12-20T14:25:48.778Z,2.30
2018-12-20T14:28:16.801Z,2.47
2018-12-20T14:30:44.809Z,2.47
2018-12-20T14:33:12.818Z,2.67
2018-12-20T14:35:40.831Z,2.20
2018-12-20T14:38:08.852Z,3.87
2018-12-20T14:40:36.849Z,2.50
2018-12-20T14:43:04.874Z,2.30
2018-12-20T14:45:32.966Z,2.40
2018-12-20T14:48:01.009Z,2.40
2018-12-20T14:50:29.071Z,2.47
2018-12-20T14:52:57.171Z,3.47
2018-12-20T14:55:25.255Z,2.80
2018-12-20T14:57:53.255Z,4.10
2018-12-20T15:00:21.407Z,2.90
2018-12-20T15:02:49.473Z,2.70
2018-12-20T15:05:17.480Z,2.70
2018-12-20T15:07:45.491Z,2.40
2018-12-20T15:10:13.500Z,2.87
2018-12-20T15:12:41.513Z,2.90
2018-12-20T15:15:09.547Z,2.80
2018-12-20T15:17:37.538Z,2.53
2018-12-20T15:20:06.936Z,2.80
2018-12-20T15:22:35.017Z,2.80
2018-12-20T15:25:03.093Z,2.80
2018-12-20T15:27:31.091Z,2.40
2018-12-20T15:29:59.102Z,2.70
2018-12-20T15:32:27.122Z,2.50
2018-12-20T15:34:55.214Z,3.83
2018-12-20T15:37:23.209Z,3.27
2018-12-20T15:39:51.242Z,2.73
2018-12-20T15:42:19.242Z,2.87
2018-12-20T15:44:47.259Z,2.60
2018-12-20T15:47:15.245Z,3.30
2018-12-20T15:49:43.313Z,2.80
2018-12-20T15:52:11.322Z,2.80
2018-12-20T15:54:39.331Z,2.87
2018-12-20T15:57:07.401Z,3.07
2018-12-20T15:59:35.422Z,3.60
2018-12-20T16:02:03.462Z,3.10
2018-12-20T16:04:31.486Z,3.40
2018-12-20T16:06:59.487Z,2.80
2018-12-20T16:09:27.506Z,3.17
2018-12-20T16:11:55.779Z,4.57
2018-12-20T16:14:23.806Z,3.20
2018-12-20T16:16:51.799Z,3.10
2018-12-20T16:19:19.815Z,2.80
2018-12-20T16:21:47.807Z,2.90
2018-12-20T16:24:15.910Z,3.20
2018-12-20T16:26:43.918Z,2.83
2018-12-20T16:29:11.905Z,2.90
2018-12-20T16:31:39.917Z,3.23
2018-12-20T16:34:07.890Z,2.37
2018-12-20T16:36:35.927Z,2.90
2018-12-20T16:39:05.971Z,2.80
2018-12-20T16:41:33.986Z,2.57
2018-12-20T16:44:01.971Z,2.80
2018-12-20T16:46:29.985Z,2.57
2018-12-20T16:48:57.971Z,2.50
2018-12-20T16:51:25.987Z,2.17
2018-12-20T16:53:53.962Z,4.43
2018-12-20T16:56:21.971Z,2.67
2018-12-20T16:58:50.048Z,2.23
2018-12-20T17:01:18.065Z,2.37
2018-12-20T17:03:46.056Z,2.50
2018-12-20T17:06:14.084Z,2.30
2018-12-20T17:08:48.170Z,2.10
2018-12-20T17:11:12.134Z,2.57
2018-12-20T17:13:40.118Z,2.60
2018-12-20T17:16:08.142Z,2.47
2018-12-20T17:18:36.251Z,2.50
2018-12-20T17:21:04.313Z,2.90
2018-12-20T17:23:35.776Z,2.70
2018-12-20T17:26:02.312Z,2.43
2018-12-20T17:28:30.310Z,2.70
2018-12-20T17:30:58.313Z,2.90
2018-12-20T17:33:26.326Z,2.50
2018-12-20T17:35:54.347Z,4.93
2018-12-20T17:38:22.351Z,3.40
2018-12-20T17:40:50.366Z,2.80
2018-12-20T17:43:18.351Z,2.77
2018-12-20T17:45:46.360Z,3.07
2018-12-20T17:48:14.376Z,2.50
2018-12-20T17:50:42.386Z,2.73
2018-12-20T17:53:10.382Z,3.63
2018-12-20T17:55:44.663Z,2.67
2018-12-20T17:58:08.442Z,3.30
2018-12-20T18:00:36.494Z,2.70
2018-12-20T18:03:04.602Z,3.00
2018-12-20T18:05:32.671Z,2.77
2018-12-20T18:08:00.736Z,2.97
2018-12-20T18:10:28.740Z,3.03
2018-12-20T18:12:56.812Z,4.90
2018-12-20T18:15:24.813Z,2.70
2018-12-20T18:17:52.826Z,2.90
2018-12-20T18:20:20.873Z,2.70
2018-12-20T18:22:48.953Z,2.53
2018-12-20T18:25:17.018Z,2.73
2018-12-20T18:27:45.018Z,2.90
2018-12-20T18:30:13.018Z,3.13
2018-12-20T18:32:41.027Z,3.23
2018-12-20T18:35:09.115Z,3.67
2018-12-20T18:37:37.097Z,3.60
2018-12-20T18:40:06.558Z,4.07
2018-12-20T18:42:34.607Z,4.60
2018-12-20T18:45:02.769Z,4.33
2018-12-20T18:47:30.794Z,4.97
2018-12-20T18:49:58.822Z,6.50
2018-12-20T18:52:26.817Z,3.10
2018-12-20T18:54:54.810Z,3.57
2018-12-20T18:57:22.874Z,4.80
2018-12-20T18:59:50.896Z,7.93
2018-12-20T19:02:18.950Z,6.00
2018-12-20T19:04:46.942Z,3.20
2018-12-20T19:07:14.956Z,3.30
2018-12-20T19:09:43.031Z,2.93
2018-12-20T19:12:11.048Z,2.93
2018-12-20T19:14:39.046Z,3.40
2018-12-20T19:17:07.086Z,4.47
2018-12-20T19:19:35.151Z,4.10
2018-12-20T19:22:03.139Z,4.90
2018-12-20T19:24:31.230Z,6.30
2018-12-20T19:26:59.275Z,6.63
2018-12-20T19:29:27.291Z,5.90
2018-12-20T19:31:55.354Z,5.53
2018-12-20T19:34:23.362Z,4.97
2018-12-20T19:36:51.370Z,5.20
2018-12-20T19:39:19.367Z,4.70
2018-12-20T19:41:47.375Z,4.50
2018-12-20T19:44:15.386Z,4.80
2018-12-20T19:46:43.425Z,5.20
2018-12-20T19:49:11.437Z,4.47
2018-12-20T19:51:39.459Z,4.30
2018-12-20T19:54:07.470Z,4.10
2018-12-20T19:56:35.505Z,3.47
2018-12-20T19:59:03.570Z,4.10
2018-12-20T20:01:33.347Z,3.80
2018-12-20T20:04:01.580Z,7.07
2018-12-20T20:06:29.584Z,4.57
2018-12-20T20:08:57.598Z,4.53
2018-12-20T20:11:25.700Z,3.93
2018-12-20T20:13:53.710Z,4.70
2018-12-20T20:16:21.717Z,4.10
2018-12-20T20:18:49.827Z,3.60
2018-12-20T20:21:17.827Z,4.40
2018-12-20T20:23:45.849Z,4.17
2018-12-20T20:26:13.847Z,3.47
2018-12-20T20:28:41.852Z,3.90
2018-12-20T20:31:09.977Z,4.10
2018-12-20T20:33:38.037Z,5.13
2018-12-20T20:36:06.064Z,3.77
2018-12-20T20:38:34.136Z,3.83
2018-12-20T20:41:02.094Z,6.63
2018-12-20T20:43:30.108Z,3.60
2018-12-20T20:45:58.127Z,3.63
2018-12-20T20:48:26.143Z,4.27
2018-12-20T20:50:54.153Z,4.23
2018-12-20T20:53:22.163Z,3.83
2018-12-20T20:55:50.168Z,4.07
2018-12-20T20:58:18.181Z,3.60
2018-12-20T21:00:46.289Z,4.00
2018-12-20T21:03:14.383Z,3.90
2018-12-20T21:05:42.380Z,4.47
2018-12-20T21:08:10.385Z,4.20
2018-12-20T21:10:38.419Z,4.20
2018-12-20T21:13:06.433Z,4.10
2018-12-20T21:15:34.419Z,4.30
2018-12-20T21:18:02.519Z,6.77
2018-12-20T21:20:31.132Z,4.13
2018-12-20T21:22:59.241Z,4.40
2018-12-20T21:25:27.256Z,3.83
2018-12-20T21:27:55.259Z,3.80
2018-12-20T21:30:23.289Z,3.53
2018-12-20T21:32:51.297Z,3.87
2018-12-20T21:35:19.288Z,3.70
2018-12-20T21:37:47.320Z,4.20
2018-12-20T21:40:15.333Z,4.03
2018-12-20T21:42:43.327Z,3.50
2018-12-20T21:45:11.413Z,3.93
2018-12-20T21:47:39.409Z,3.77
2018-12-20T21:50:08.122Z,3.67
2018-12-20T21:52:36.114Z,3.60
2018-12-20T21:55:05.374Z,4.60
2018-12-20T21:57:33.361Z,4.93
2018-12-20T22:00:01.784Z,4.13
2018-12-20T22:02:29.878Z,4.00
2018-12-20T22:04:57.878Z,3.60
2018-12-20T22:07:25.886Z,3.60
2018-12-20T22:09:53.910Z,3.60
2018-12-20T22:12:21.912Z,3.80
2018-12-20T22:14:49.905Z,4.07
2018-12-20T22:17:17.925Z,3.60
2018-12-20T22:19:45.933Z,3.53
2018-12-20T22:22:13.932Z,4.00
2018-12-20T22:24:42.231Z,4.37
2018-12-20T22:27:10.234Z,4.40
2018-12-20T22:29:38.255Z,4.00
2018-12-20T22:32:06.250Z,4.67
2018-12-20T22:34:34.261Z,4.10
2018-12-20T22:37:02.245Z,4.67
2018-12-20T22:39:30.275Z,3.73
2018-12-20T22:41:58.342Z,6.53
2018-12-20T22:44:26.336Z,3.60
2018-12-20T22:46:54.339Z,3.70
2018-12-20T22:49:23.264Z,4.00
2018-12-20T22:51:51.285Z,3.77
2018-12-20T22:54:19.289Z,4.47
2018-12-20T22:56:47.296Z,4.00
2018-12-20T22:59:15.323Z,4.20
2018-12-20T23:01:43.308Z,3.67
2018-12-20T23:04:11.346Z,4.90
2018-12-20T23:06:39.352Z,2.80
2018-12-20T23:09:07.410Z,3.33
2018-12-20T23:11:35.424Z,3.73
2018-12-20T23:14:03.447Z,3.50
2018-12-20T23:16:31.547Z,3.47
2018-12-20T23:18:59.535Z,5.10
2018-12-20T23:21:27.614Z,2.93
2018-12-20T23:23:55.631Z,3.40
2018-12-20T23:26:23.692Z,3.37
2018-12-20T23:28:51.717Z,2.90
2018-12-20T23:31:19.724Z,2.90
2018-12-20T23:33:47.734Z,3.17
2018-12-20T23:36:15.738Z,3.13
2018-12-20T23:38:43.751Z,3.13
2018-12-20T23:41:11.746Z,3.60
2018-12-20T23:43:39.747Z,3.23
2018-12-20T23:46:07.891Z,3.07
2018-12-20T23:48:35.968Z,3.13
2018-12-20T23:51:03.963Z,3.80
2018-12-20T23:53:31.984Z,3.53
2018-12-20T23:55:59.985Z,4.57
2018-12-20T23:58:27.997Z,3.23
